ADDS METAR Data INFO
IDs: Format: Raw Decoded Include TAF

Data at: 1111 UTC 18 Oct 2017

KSOA 181055Z AUTO 00000KT 10SM CLR 07/03 A3017 RMK AO2
KSOA 181035Z AUTO 00000KT 10SM CLR 04/02 A3017 RMK AO2
KSOA 181015Z AUTO 00000KT 10SM CLR 04/02 A3017 RMK AO2
KSOA 180955Z AUTO 00000KT 10SM CLR 04/02 A3017 RMK AO2
KSOA 180935Z AUTO 00000KT 10SM CLR 04/02 A3017 RMK AO2
KSOA 180915Z AUTO 00000KT CLR 05/02 A3018 RMK AO2
KSOA 180855Z AUTO 00000KT 10SM CLR 05/02 A3018 RMK AO2
KSOA 180835Z AUTO 00000KT 10SM CLR 05/02 A3019 RMK AO2
KSOA 180815Z AUTO 00000KT 10SM CLR 05/03 A3019 RMK AO2
KSOA 180755Z AUTO 00000KT 10SM CLR 05/02 A3020 RMK AO2
KSOA 180735Z AUTO 00000KT 10SM CLR 05/02 A3020 RMK AO2
KSOA 180715Z AUTO 00000KT 10SM CLR 05/02 A3020 RMK AO2
KSOA 180655Z AUTO 00000KT 10SM CLR 06/03 A3021 RMK AO2
KSOA 180635Z AUTO 00000KT 10SM CLR 06/03 A3021 RMK AO2
KSOA 180615Z AUTO 00000KT 10SM CLR 06/03 A3021 RMK AO2
KSOA 180555Z AUTO 00000KT 10SM CLR 06/03 A3021 RMK AO2
KSOA 180535Z AUTO 00000KT 10SM CLR 07/03 A3022 RMK AO2
KSOA 180510Z AUTO 00000KT 10SM CLR 07/03 A3022 RMK AO2
KSOA 180455Z AUTO 00000KT 10SM CLR 08/04 A3023 RMK AO2
KSOA 180435Z AUTO 00000KT 10SM CLR 08/03 A3023 RMK AO2
KSOA 180415Z AUTO 00000KT 10SM CLR 08/04 A3023 RMK AO2
KSOA 180355Z AUTO 00000KT 10SM CLR 10/04 A3023 RMK AO2
KSOA 180335Z AUTO 00000KT 10SM CLR 11/05 A3023 RMK AO2
KSOA 180315Z AUTO 00000KT 10SM CLR 11/04 A3022 RMK AO2
KSOA 180255Z AUTO 00000KT 10SM CLR 12/05 A3022 RMK AO2
KSOA 180235Z AUTO 00000KT 10SM CLR 14/05 A3022 RMK AO2
KSOA 180215Z AUTO 00000KT 10SM CLR 13/04 A3022 RMK AO2
KSOA 180155Z AUTO 00000KT 10SM CLR 15/04 A3022 RMK AO2
KSOA 180135Z AUTO 00000KT 10SM CLR 17/04 A3022 RMK AO2
KSOA 180115Z AUTO 00000KT 10SM CLR 18/04 A3021 RMK AO2
KSOA 180055Z AUTO 00000KT 10SM CLR 19/04 A3021 RMK AO2
KSOA 180035Z AUTO 00000KT 10SM CLR 20/03 A3020 RMK AO2
KSOA 180015Z AUTO 00000KT 10SM CLR 22/03 A3020 RMK AO2
KSOA 172355Z AUTO 19004KT 10SM CLR 23/03 A3020 RMK AO2
KSOA 172335Z AUTO 19006KT 10SM CLR 25/02 A3020 RMK AO2
KSOA 172315Z AUTO 19008KT 10SM CLR 25/01 A3020 RMK AO2
KSOA 172255Z AUTO 18007KT 10SM CLR 26/02 A3020 RMK AO2
KSOA 172235Z AUTO 16008KT 10SM CLR 26/00 A3020 RMK AO2
KSOA 172215Z AUTO 18007KT 10SM CLR 26/01 A3021 RMK AO2
KSOA 172155Z AUTO 21005G11KT 10SM CLR 26/02 A3021 RMK AO2
KSOA 172135Z AUTO 19007KT 10SM CLR 26/02 A3022 RMK AO2
KSOA 172115Z AUTO VRB05G12KT 10SM CLR 26/01 A3022 RMK AO2
KSOA 172055Z AUTO 21007KT 10SM CLR 26/02 A3022 RMK AO2
KSOA 172035Z AUTO 20008KT 10SM CLR 25/02 A3023 RMK AO2
KSOA 172015Z AUTO 18008KT 160V220 10SM CLR 25/03 A3024 RMK AO2
KSOA 171955Z AUTO VRB06G11KT 10SM CLR 25/02 A3024 RMK AO2
KSOA 171935Z AUTO 19007KT 10SM CLR 25/02 A3026 RMK AO2
KSOA 171915Z AUTO 22006G13KT 10SM CLR 24/03 A3027 RMK AO2
KSOA 171855Z AUTO 20007G12KT 170V240 10SM CLR 24/02 A3028 RMK AO2
KSOA 171835Z AUTO 23007KT 10SM CLR 24/02 A3029 RMK AO2
KSOA 171815Z AUTO 20009KT 160V230 10SM CLR 23/02 A3031 RMK AO2
KSOA 171755Z AUTO 19005KT 10SM CLR 23/02 A3032 RMK AO2
KSOA 171735Z AUTO VRB05G10KT 10SM CLR 23/02 A3034 RMK AO2
KSOA 171715Z AUTO 19007KT 10SM CLR 22/02 A3035 RMK AO2
KSOA 171655Z AUTO 18006KT 10SM CLR 21/02 A3035 RMK AO2
KSOA 171635Z AUTO 19008KT 10SM CLR 20/02 A3035 RMK AO2
KSOA 171615Z AUTO 18006KT 10SM CLR 20/02 A3036 RMK AO2
KSOA 171555Z AUTO 18006KT 10SM CLR 19/02 A3036 RMK AO2
KSOA 171535Z AUTO 18005KT 10SM CLR 18/04 A3036 RMK AO2
KSOA 171515Z AUTO 00000KT 10SM CLR 16/04 A3036 RMK AO2
KSOA 171455Z AUTO 00000KT 10SM CLR 13/03 A3036 RMK AO2
KSOA 171435Z AUTO 00000KT 10SM CLR 11/02 A3036 RMK AO2
KSOA 171415Z AUTO 00000KT 10SM CLR 08/03 A3035 RMK AO2
KSOA 171355Z AUTO 00000KT 10SM CLR 04/01 A3035 RMK AO2
KSOA 171335Z AUTO 00000KT 10SM CLR 02/00 A3035 RMK AO2
KSOA 171315Z AUTO 00000KT 10SM CLR 01/M01 A3035 RMK AO2
KSOA 171255Z AUTO 00000KT 10SM CLR 01/M01 A3034 RMK AO2
KSOA 171235Z AUTO 00000KT 10SM CLR 01/M01 A3034 RMK AO2
KSOA 171215Z AUTO 00000KT 10SM CLR 00/M01 A3033 RMK AO2
KSOA 171155Z AUTO 00000KT 10SM CLR 00/M01 A3033 RMK AO2
KSOA 171135Z AUTO 00000KT 10SM CLR 01/M01 A3032 RMK AO2
KSOA 171115Z AUTO 00000KT 10SM CLR 01/M01 A3032 RMK AO2
KSOA 171055Z AUTO 00000KT 10SM CLR 01/M01 A3032 RMK AO2
KSOA 171035Z AUTO 00000KT 10SM CLR 01/M01 A3031 RMK AO2
KSOA 171015Z AUTO 00000KT 10SM CLR 01/M01 A3031 RMK AO2
KSOA 170955Z AUTO 00000KT 10SM CLR 01/M00 A3031 RMK AO2
KSOA 170935Z AUTO 00000KT 10SM CLR 01/M00 A3031 RMK AO2
KSOA 170915Z AUTO 00000KT 10SM CLR 02/M00 A3032 RMK AO2
KSOA 170855Z AUTO 00000KT 10SM CLR 02/00 A3033 RMK AO2
KSOA 170835Z AUTO 00000KT 10SM CLR 02/00 A3034 RMK AO2
KSOA 170815Z AUTO 00000KT 10SM CLR 03/00 A3034 RMK AO2
KSOA 170755Z AUTO 00000KT 10SM CLR 03/00 A3035 RMK AO2
KSOA 170735Z AUTO 00000KT 10SM CLR 03/00 A3035 RMK AO2
KSOA 170715Z AUTO 00000KT 10SM CLR 03/01 A3036 RMK AO2
KSOA 170655Z AUTO 00000KT 10SM CLR 03/01 A3036 RMK AO2
KSOA 170635Z AUTO 00000KT 10SM CLR 04/01 A3036 RMK AO2
KSOA 170615Z AUTO 00000KT 10SM CLR 04/01 A3037 RMK AO2
KSOA 170555Z AUTO 00000KT 10SM CLR 04/01 A3036 RMK AO2
KSOA 170535Z AUTO 00000KT 10SM CLR 05/01 A3037 RMK AO2
KSOA 170515Z AUTO 00000KT 10SM CLR 05/01 A3037 RMK AO2
KSOA 170455Z AUTO 00000KT 10SM CLR 05/02 A3037 RMK AO2
KSOA 170435Z AUTO 00000KT 10SM CLR 06/02 A3037 RMK AO2
KSOA 170415Z AUTO 00000KT 10SM CLR 06/02 A3037 RMK AO2
KSOA 170355Z AUTO 00000KT 10SM CLR 07/02 A3037 RMK AO2
KSOA 170335Z AUTO 00000KT 10SM CLR 07/02 A3037 RMK AO2
KSOA 170315Z AUTO 00000KT 10SM CLR 08/02 A3036 RMK AO2
KSOA 170255Z AUTO 00000KT 10SM CLR 09/02 A3036 RMK AO2
KSOA 170235Z AUTO 00000KT 10SM CLR 10/02 A3036 RMK AO2
KSOA 170215Z AUTO 00000KT 10SM CLR 10/02 A3036 RMK AO2
KSOA 170155Z AUTO 00000KT 10SM CLR 11/01 A3036 RMK AO2
KSOA 170135Z AUTO 00000KT 10SM CLR 11/02 A3036 RMK AO2
KSOA 170115Z AUTO 00000KT 10SM CLR 14/00 A3036 RMK AO2
KSOA 170055Z AUTO 00000KT 10SM CLR 13/02 A3035 RMK AO2
KSOA 170035Z AUTO 00000KT 10SM CLR 16/M01 A3035 RMK AO2
KSOA 170015Z AUTO 00000KT CLR 18/M01 A3034 RMK AO2
KSOA 162355Z AUTO 00000KT 10SM CLR 19/M02 A3034 RMK AO2
KSOA 162335Z AUTO 36005KT 10SM CLR 21/M02 A3034 RMK AO2
KSOA 162315Z AUTO 00000KT 10SM CLR 22/M02 A3034 RMK AO2